CDT,Max TemperatureF,Mean TemperatureF,Min TemperatureF,Max Dew PointF,MeanDew PointF,Min DewpointF,Max Humidity, Mean Humidity, Min Humidity, Max Sea Level PressureIn, Mean Sea Level PressureIn, Min Sea Level PressureIn, Max VisibilityMiles, Mean VisibilityMiles, Min VisibilityMiles, Max Wind SpeedMPH, Mean Wind SpeedMPH, Max Gust SpeedMPH,PrecipitationIn, CloudCover, Events, WindDirDegrees
2013-9-1,83,74,63,71,62,56,92,69,40,30.03,29.94,29.78,10,10,10,16,6,24,0.00,1,,345
2013-9-2,81,68,55,60,56,48,94,71,33,30.13,30.07,30.03,10,10,4,8,5,,0.00,0,,360
2013-9-3,87,69,51,64,57,50,93,69,37,30.11,30.06,30.02,10,10,10,12,3,16,0.00,0,,169
2013-9-4,88,74,61,63,61,57,89,70,34,30.16,30.11,30.05,10,10,10,13,5,17,0.00,1,,153
2013-9-5,91,78,65,64,62,56,90,66,32,30.20,30.15,30.10,10,10,10,14,5,18,0.01,3,Rain,139
2013-9-6,95,78,62,69,64,59,90,66,35,30.10,30.01,29.90,10,10,10,18,7,23,0.00,0,,156
2013-9-7,86,76,66,72,67,64,93,77,49,29.95,29.91,29.87,10,9,4,15,6,,0.05,0,Rain,328
2013-9-8,94,80,66,74,69,65,95,75,43,29.94,29.87,29.80,10,7,0,12,5,,0.00,0,Fog,93
2013-9-9,100,84,68,70,60,52,92,53,20,29.85,29.81,29.78,10,10,7,20,8,28,0.00,0,,188
2013-9-10,94,79,64,70,62,58,93,62,31,30.07,29.95,29.86,10,10,10,15,6,21,0.04,3,Rain,194
2013-9-11,85,76,68,70,67,59,95,80,43,30.14,30.10,30.05,10,9,3,14,4,23,0.35,4,Rain,11
2013-9-12,82,68,56,67,55,46,93,63,29,30.25,30.19,30.13,10,10,7,15,6,26,0.00,1,,4
2013-9-13,76,62,48,55,50,46,95,68,34,30.24,30.17,30.08,10,10,10,7,4,,0.00,0,,87
2013-9-14,78,64,51,57,52,48,92,66,36,30.09,29.99,29.86,10,10,10,17,6,23,0.00,2,Rain,157
2013-9-15,69,63,57,66,58,53,90,78,65,30.26,30.04,29.86,10,10,5,17,9,23,0.28,8,Rain,8
2013-9-16,69,62,54,56,53,51,93,75,55,30.33,30.26,30.20,10,10,5,15,7,20,0.18,6,Rain,94
2013-9-17,74,66,58,68,62,56,96,89,76,30.20,30.03,29.87,10,7,0,15,9,21,0.24,8,Fog-Rain,146
2013-9-18,92,79,67,68,66,64,92,70,43,29.88,29.77,29.69,10,9,5,21,12,26,0.00,2,,170
2013-9-19,80,68,58,67,60,49,89,70,49,30.04,29.83,29.72,10,10,1,21,11,37,0.32,3,Rain,288
2013-9-20,72,60,48,52,46,41,89,65,33,30.10,30.04,29.98,10,10,10,18,8,26,0.00,0,,314
2013-9-21,80,61,42,55,47,40,93,68,33,30.04,29.96,29.85,10,10,10,14,4,17,0.00,0,,143
2013-9-22,83,68,52,54,50,44,92,60,26,29.89,29.84,29.79,10,10,10,23,9,30,0.00,0,,164
2013-9-23,79,65,51,52,50,47,89,58,32,29.84,29.77,29.71,10,10,10,28,13,38,0.00,1,,142
2013-9-24,71,63,55,57,55,52,94,72,58,29.93,29.84,29.70,10,10,7,17,10,26,0.00,4,,11
2013-9-25,81,65,49,59,54,48,96,73,41,29.92,29.85,29.73,10,7,0,20,6,25,0.00,2,Fog,137
2013-9-26,89,75,61,60,57,53,87,58,29,29.80,29.76,29.71,10,10,10,30,15,39,0.00,0,,144
2013-9-27,90,79,68,60,57,54,73,52,31,29.82,29.79,29.73,10,10,10,30,17,38,0.00,1,Rain,156
2013-9-28,73,62,49,61,48,37,92,63,31,30.07,29.90,29.68,10,10,3,18,13,28,0.27,3,Rain,282
2013-9-29,79,60,42,46,42,38,90,59,23,30.07,29.98,29.87,10,10,7,20,7,25,0.00,0,,185
2013-9-30,84,66,48,52,47,45,90,61,26,29.88,29.78,29.70,10,10,10,20,10,25,0.00,0,,180